sensor_id;sensor_type;location;lat;lon;timestamp;temperature;humidity
67133;HTU21D;54052;53.542;49.408;2023-04-03T00:00:33;5.04;67.94
67133;HTU21D;54052;53.542;49.408;2023-04-03T00:02:59;5.08;67.72
67133;HTU21D;54052;53.542;49.408;2023-04-03T00:05:25;5.11;67.30
67133;HTU21D;54052;53.542;49.408;2023-04-03T00:07:52;5.18;67.40
67133;HTU21D;54052;53.542;49.408;2023-04-03T00:10:18;5.19;67.22
67133;HTU21D;54052;53.542;49.408;2023-04-03T00:12:44;5.18;67.14
67133;HTU21D;54052;53.542;49.408;2023-04-03T00:15:10;5.15;67.13
67133;HTU21D;54052;53.542;49.408;2023-04-03T00:17:36;5.11;67.47
67133;HTU21D;54052;53.542;49.408;2023-04-03T00:20:03;5.07;67.53
67133;HTU21D;54052;53.542;49.408;2023-04-03T00:22:29;5.04;67.41
67133;HTU21D;54052;53.542;49.408;2023-04-03T00:24:55;5.05;67.71
67133;HTU21D;54052;53.542;49.408;2023-04-03T00:27:21;5.05;67.42
67133;HTU21D;54052;53.542;49.408;2023-04-03T00:29:47;5.10;67.32
67133;HTU21D;54052;53.542;49.408;2023-04-03T00:32:14;5.09;67.34
67133;HTU21D;54052;53.542;49.408;2023-04-03T00:34:40;5.09;67.37
67133;HTU21D;54052;53.542;49.408;2023-04-03T00:37:06;5.08;67.24
67133;HTU21D;54052;53.542;49.408;2023-04-03T00:39:32;5.06;66.99
67133;HTU21D;54052;53.542;49.408;2023-04-03T00:41:58;5.03;67.36
67133;HTU21D;54052;53.542;49.408;2023-04-03T00:47:00;4.77;68.13
67133;HTU21D;54052;53.542;49.408;2023-04-03T00:49:27;4.74;68.09
67133;HTU21D;54052;53.542;49.408;2023-04-03T00:51:54;4.73;68.40
67133;HTU21D;54052;53.542;49.408;2023-04-03T00:54:20;4.60;68.24
67133;HTU21D;54052;53.542;49.408;2023-04-03T00:56:46;4.56;68.67
67133;HTU21D;54052;53.542;49.408;2023-04-03T00:59:16;4.46;69.63
67133;HTU21D;54052;53.542;49.408;2023-04-03T01:01:48;4.44;69.74
67133;HTU21D;54052;53.542;49.408;2023-04-03T01:04:28;4.50;69.00
67133;HTU21D;54052;53.542;49.408;2023-04-03T01:06:56;4.52;68.97
67133;HTU21D;54052;53.542;49.408;2023-04-03T01:09:23;4.51;68.87
67133;HTU21D;54052;53.542;49.408;2023-04-03T01:11:50;4.44;69.36
67133;HTU21D;54052;53.542;49.408;2023-04-03T01:14:16;4.53;68.74
67133;HTU21D;54052;53.542;49.408;2023-04-03T01:16:42;4.52;69.13
67133;HTU21D;54052;53.542;49.408;2023-04-03T01:19:12;4.38;69.59
67133;HTU21D;54052;53.542;49.408;2023-04-03T01:22:01;4.32;70.19
67133;HTU21D;54052;53.542;49.408;2023-04-03T01:24:34;4.23;70.15
67133;HTU21D;54052;53.542;49.408;2023-04-03T01:27:04;4.19;70.39
67133;HTU21D;54052;53.542;49.408;2023-04-03T01:29:30;4.19;70.29
67133;HTU21D;54052;53.542;49.408;2023-04-03T01:31:58;4.15;70.25
67133;HTU21D;54052;53.542;49.408;2023-04-03T01:34:26;4.14;70.65
67133;HTU21D;54052;53.542;49.408;2023-04-03T01:36:53;4.13;70.58
67133;HTU21D;54052;53.542;49.408;2023-04-03T01:39:19;4.12;70.76
67133;HTU21D;54052;53.542;49.408;2023-04-03T01:41:46;4.05;70.83
67133;HTU21D;54052;53.542;49.408;2023-04-03T01:44:12;4.00;71.10
67133;HTU21D;54052;53.542;49.408;2023-04-03T01:46:39;3.99;71.00
67133;HTU21D;54052;53.542;49.408;2023-04-03T01:49:06;3.93;71.28
67133;HTU21D;54052;53.542;49.408;2023-04-03T01:51:33;3.91;71.49
67133;HTU21D;54052;53.542;49.408;2023-04-03T01:53:59;3.89;71.12
67133;HTU21D;54052;53.542;49.408;2023-04-03T01:56:25;3.84;71.19
67133;HTU21D;54052;53.542;49.408;2023-04-03T01:58:51;3.79;71.42
67133;HTU21D;54052;53.542;49.408;2023-04-03T02:01:17;3.82;71.51
67133;HTU21D;54052;53.542;49.408;2023-04-03T02:03:43;3.75;71.66
67133;HTU21D;54052;53.542;49.408;2023-04-03T02:06:09;3.73;71.40
67133;HTU21D;54052;53.542;49.408;2023-04-03T02:08:35;3.68;71.81
67133;HTU21D;54052;53.542;49.408;2023-04-03T02:11:01;3.70;71.67
67133;HTU21D;54052;53.542;49.408;2023-04-03T02:13:27;3.65;71.69
67133;HTU21D;54052;53.542;49.408;2023-04-03T02:15:53;3.69;71.78
67133;HTU21D;54052;53.542;49.408;2023-04-03T02:18:19;3.74;71.67
67133;HTU21D;54052;53.542;49.408;2023-04-03T02:20:46;3.73;71.67
67133;HTU21D;54052;53.542;49.408;2023-04-03T02:23:12;3.76;71.50
67133;HTU21D;54052;53.542;49.408;2023-04-03T02:25:38;3.83;71.19
67133;HTU21D;54052;53.542;49.408;2023-04-03T02:28:04;3.90;71.05
67133;HTU21D;54052;53.542;49.408;2023-04-03T02:30:30;3.98;70.66
67133;HTU21D;54052;53.542;49.408;2023-04-03T02:32:56;4.06;70.36
67133;HTU21D;54052;53.542;49.408;2023-04-03T02:35:22;4.15;70.04
67133;HTU21D;54052;53.542;49.408;2023-04-03T02:37:48;4.27;69.72
67133;HTU21D;54052;53.542;49.408;2023-04-03T02:40:14;4.30;69.49
67133;HTU21D;54052;53.542;49.408;2023-04-03T02:42:40;4.34;69.52
67133;HTU21D;54052;53.542;49.408;2023-04-03T02:45:07;4.41;69.44
67133;HTU21D;54052;53.542;49.408;2023-04-03T02:47:33;4.45;69.16
67133;HTU21D;54052;53.542;49.408;2023-04-03T02:49:59;4.49;68.79
67133;HTU21D;54052;53.542;49.408;2023-04-03T02:52:25;4.52;68.75
67133;HTU21D;54052;53.542;49.408;2023-04-03T02:54:52;4.57;68.92
67133;HTU21D;54052;53.542;49.408;2023-04-03T02:57:18;4.54;69.00
67133;HTU21D;54052;53.542;49.408;2023-04-03T02:59:45;4.52;68.72
67133;HTU21D;54052;53.542;49.408;2023-04-03T03:02:11;4.57;68.35
67133;HTU21D;54052;53.542;49.408;2023-04-03T03:04:38;4.64;68.11
67133;HTU21D;54052;53.542;49.408;2023-04-03T03:07:04;4.75;67.82
67133;HTU21D;54052;53.542;49.408;2023-04-03T03:09:31;4.78;67.84
67133;HTU21D;54052;53.542;49.408;2023-04-03T03:11:57;4.81;67.55
67133;HTU21D;54052;53.542;49.408;2023-04-03T03:14:23;4.88;67.84
67133;HTU21D;54052;53.542;49.408;2023-04-03T03:16:50;4.92;67.70
67133;HTU21D;54052;53.542;49.408;2023-04-03T03:19:16;5.01;66.87
67133;HTU21D;54052;53.542;49.408;2023-04-03T03:21:42;5.06;66.98
67133;HTU21D;54052;53.542;49.408;2023-04-03T03:24:08;5.13;67.04
67133;HTU21D;54052;53.542;49.408;2023-04-03T03:26:35;5.20;66.41
67133;HTU21D;54052;53.542;49.408;2023-04-03T03:29:02;5.30;66.42
67133;HTU21D;54052;53.542;49.408;2023-04-03T03:31:28;5.41;65.86
67133;HTU21D;54052;53.542;49.408;2023-04-03T03:33:54;5.55;65.34
67133;HTU21D;54052;53.542;49.408;2023-04-03T03:36:20;5.71;64.66
67133;HTU21D;54052;53.542;49.408;2023-04-03T03:38:47;5.90;64.37
67133;HTU21D;54052;53.542;49.408;2023-04-03T03:41:13;6.01;62.57
67133;HTU21D;54052;53.542;49.408;2023-04-03T03:43:39;6.17;62.70
67133;HTU21D;54052;53.542;49.408;2023-04-03T03:46:05;6.34;62.08
67133;HTU21D;54052;53.542;49.408;2023-04-03T03:48:32;6.51;60.86
67133;HTU21D;54052;53.542;49.408;2023-04-03T03:50:58;6.65;60.49
67133;HTU21D;54052;53.542;49.408;2023-04-03T03:53:24;6.82;59.83
67133;HTU21D;54052;53.542;49.408;2023-04-03T03:55:51;6.98;58.96
67133;HTU21D;54052;53.542;49.408;2023-04-03T03:58:17;7.08;58.93
67133;HTU21D;54052;53.542;49.408;2023-04-03T04:00:43;7.22;57.56
67133;HTU21D;54052;53.542;49.408;2023-04-03T04:03:09;7.33;57.29
67133;HTU21D;54052;53.542;49.408;2023-04-03T04:05:35;7.39;57.48
67133;HTU21D;54052;53.542;49.408;2023-04-03T04:08:01;7.42;56.91
67133;HTU21D;54052;53.542;49.408;2023-04-03T04:10:27;7.54;56.32
67133;HTU21D;54052;53.542;49.408;2023-04-03T04:12:53;7.69;55.74
67133;HTU21D;54052;53.542;49.408;2023-04-03T04:15:19;7.85;55.09
67133;HTU21D;54052;53.542;49.408;2023-04-03T04:17:47;7.96;55.04
67133;HTU21D;54052;53.542;49.408;2023-04-03T04:20:14;8.12;54.04
67133;HTU21D;54052;53.542;49.408;2023-04-03T04:22:40;8.22;53.94
67133;HTU21D;54052;53.542;49.408;2023-04-03T04:25:07;8.33;53.23
67133;HTU21D;54052;53.542;49.408;2023-04-03T04:27:33;8.41;53.24
67133;HTU21D;54052;53.542;49.408;2023-04-03T04:29:59;8.45;52.63
67133;HTU21D;54052;53.542;49.408;2023-04-03T04:32:26;8.56;51.88
67133;HTU21D;54052;53.542;49.408;2023-04-03T04:34:52;8.66;51.65
67133;HTU21D;54052;53.542;49.408;2023-04-03T04:37:18;8.74;51.43
67133;HTU21D;54052;53.542;49.408;2023-04-03T04:39:45;8.78;51.73
67133;HTU21D;54052;53.542;49.408;2023-04-03T04:42:12;8.71;51.41
67133;HTU21D;54052;53.542;49.408;2023-04-03T04:44:39;8.79;51.44
67133;HTU21D;54052;53.542;49.408;2023-04-03T04:47:05;8.90;50.81
67133;HTU21D;54052;53.542;49.408;2023-04-03T04:49:31;8.98;50.05
67133;HTU21D;54052;53.542;49.408;2023-04-03T04:51:57;9.05;49.73
67133;HTU21D;54052;53.542;49.408;2023-04-03T04:54:23;9.06;50.65
67133;HTU21D;54052;53.542;49.408;2023-04-03T04:56:49;9.17;50.08
67133;HTU21D;54052;53.542;49.408;2023-04-03T04:59:15;9.29;48.90
67133;HTU21D;54052;53.542;49.408;2023-04-03T05:01:42;9.39;48.54
67133;HTU21D;54052;53.542;49.408;2023-04-03T05:04:08;9.49;48.19
67133;HTU21D;54052;53.542;49.408;2023-04-03T05:06:35;9.57;47.28
67133;HTU21D;54052;53.542;49.408;2023-04-03T05:09:01;9.66;48.24
67133;HTU21D;54052;53.542;49.408;2023-04-03T05:11:27;9.72;47.34
67133;HTU21D;54052;53.542;49.408;2023-04-03T05:13:53;9.78;47.09
67133;HTU21D;54052;53.542;49.408;2023-04-03T05:16:19;9.86;47.34
67133;HTU21D;54052;53.542;49.408;2023-04-03T05:18:46;9.89;46.99
67133;HTU21D;54052;53.542;49.408;2023-04-03T05:21:12;9.92;46.86
67133;HTU21D;54052;53.542;49.408;2023-04-03T05:23:38;10.03;46.15
67133;HTU21D;54052;53.542;49.408;2023-04-03T05:26:04;10.07;46.13
67133;HTU21D;54052;53.542;49.408;2023-04-03T05:28:30;10.11;45.62
67133;HTU21D;54052;53.542;49.408;2023-04-03T05:30:58;10.18;45.73
67133;HTU21D;54052;53.542;49.408;2023-04-03T05:33:25;10.23;45.41
67133;HTU21D;54052;53.542;49.408;2023-04-03T05:35:53;10.30;44.81
67133;HTU21D;54052;53.542;49.408;2023-04-03T05:38:19;10.34;45.16
67133;HTU21D;54052;53.542;49.408;2023-04-03T05:40:46;10.40;44.83
67133;HTU21D;54052;53.542;49.408;2023-04-03T05:43:12;10.46;44.82
67133;HTU21D;54052;53.542;49.408;2023-04-03T05:45:38;10.52;44.36
67133;HTU21D;54052;53.542;49.408;2023-04-03T05:48:04;10.60;44.10
67133;HTU21D;54052;53.542;49.408;2023-04-03T05:50:30;10.70;43.29
67133;HTU21D;54052;53.542;49.408;2023-04-03T05:52:57;10.78;42.97
67133;HTU21D;54052;53.542;49.408;2023-04-03T05:55:24;10.84;42.75
67133;HTU21D;54052;53.542;49.408;2023-04-03T05:57:53;10.90;43.14
67133;HTU21D;54052;53.542;49.408;2023-04-03T06:00:20;11.01;43.19
67133;HTU21D;54052;53.542;49.408;2023-04-03T06:02:47;11.05;43.08
67133;HTU21D;54052;53.542;49.408;2023-04-03T06:05:13;11.18;42.78
67133;HTU21D;54052;53.542;49.408;2023-04-03T06:07:40;11.29;42.28
67133;HTU21D;54052;53.542;49.408;2023-04-03T06:10:07;11.33;41.26
67133;HTU21D;54052;53.542;49.408;2023-04-03T06:12:34;11.34;41.36
67133;HTU21D;54052;53.542;49.408;2023-04-03T06:15:01;11.41;41.51
67133;HTU21D;54052;53.542;49.408;2023-04-03T06:17:28;11.46;41.32
67133;HTU21D;54052;53.542;49.408;2023-04-03T06:19:55;11.40;40.84
67133;HTU21D;54052;53.542;49.408;2023-04-03T06:22:24;11.39;40.72
67133;HTU21D;54052;53.542;49.408;2023-04-03T06:24:51;11.47;41.48
67133;HTU21D;54052;53.542;49.408;2023-04-03T06:27:17;11.61;40.41
67133;HTU21D;54052;53.542;49.408;2023-04-03T06:29:44;11.75;39.14
67133;HTU21D;54052;53.542;49.408;2023-04-03T06:32:11;11.84;39.39
67133;HTU21D;54052;53.542;49.408;2023-04-03T06:34:37;11.91;39.06
67133;HTU21D;54052;53.542;49.408;2023-04-03T06:37:03;12.04;39.68
67133;HTU21D;54052;53.542;49.408;2023-04-03T06:39:30;12.12;38.13
67133;HTU21D;54052;53.542;49.408;2023-04-03T06:41:56;12.17;37.40
67133;HTU21D;54052;53.542;49.408;2023-04-03T06:44:22;12.20;37.01
67133;HTU21D;54052;53.542;49.408;2023-04-03T06:46:49;12.34;36.82
67133;HTU21D;54052;53.542;49.408;2023-04-03T06:49:15;12.42;36.24
67133;HTU21D;54052;53.542;49.408;2023-04-03T06:51:41;12.48;35.98
67133;HTU21D;54052;53.542;49.408;2023-04-03T06:54:07;12.58;35.15
67133;HTU21D;54052;53.542;49.408;2023-04-03T06:56:34;12.64;34.29
67133;HTU21D;54052;53.542;49.408;2023-04-03T06:59:01;12.75;34.14
67133;HTU21D;54052;53.542;49.408;2023-04-03T07:01:28;12.76;33.53
67133;HTU21D;54052;53.542;49.408;2023-04-03T07:03:56;12.82;32.66
67133;HTU21D;54052;53.542;49.408;2023-04-03T07:06:22;12.88;32.86
67133;HTU21D;54052;53.542;49.408;2023-04-03T07:08:49;12.93;33.38
67133;HTU21D;54052;53.542;49.408;2023-04-03T07:11:16;13.04;33.17
67133;HTU21D;54052;53.542;49.408;2023-04-03T07:13:42;13.12;32.41
67133;HTU21D;54052;53.542;49.408;2023-04-03T07:16:09;13.21;32.86
67133;HTU21D;54052;53.542;49.408;2023-04-03T07:18:35;13.30;32.17
67133;HTU21D;54052;53.542;49.408;2023-04-03T07:21:02;13.38;32.18
67133;HTU21D;54052;53.542;49.408;2023-04-03T07:23:28;13.41;30.65
67133;HTU21D;54052;53.542;49.408;2023-04-03T07:25:55;13.39;30.03
67133;HTU21D;54052;53.542;49.408;2023-04-03T07:28:22;13.39;28.96
67133;HTU21D;54052;53.542;49.408;2023-04-03T07:30:50;13.38;29.59
67133;HTU21D;54052;53.542;49.408;2023-04-03T07:33:18;13.50;28.36
67133;HTU21D;54052;53.542;49.408;2023-04-03T07:35:45;13.51;28.86
67133;HTU21D;54052;53.542;49.408;2023-04-03T07:38:11;13.69;28.71
67133;HTU21D;54052;53.542;49.408;2023-04-03T07:40:38;13.68;27.94
67133;HTU21D;54052;53.542;49.408;2023-04-03T07:43:05;13.76;27.65
67133;HTU21D;54052;53.542;49.408;2023-04-03T07:45:34;13.88;27.62
67133;HTU21D;54052;53.542;49.408;2023-04-03T07:48:00;13.99;27.07
67133;HTU21D;54052;53.542;49.408;2023-04-03T07:50:26;14.05;26.13
67133;HTU21D;54052;53.542;49.408;2023-04-03T07:52:55;13.98;26.08
67133;HTU21D;54052;53.542;49.408;2023-04-03T07:55:24;14.04;26.63
67133;HTU21D;54052;53.542;49.408;2023-04-03T07:57:50;14.15;26.09
67133;HTU21D;54052;53.542;49.408;2023-04-03T08:00:17;14.19;25.50
67133;HTU21D;54052;53.542;49.408;2023-04-03T08:02:44;14.29;25.74
67133;HTU21D;54052;53.542;49.408;2023-04-03T08:05:10;14.35;25.35
67133;HTU21D;54052;53.542;49.408;2023-04-03T08:07:37;14.32;26.09
67133;HTU21D;54052;53.542;49.408;2023-04-03T08:10:04;14.41;25.78
67133;HTU21D;54052;53.542;49.408;2023-04-03T08:12:31;14.57;25.36
67133;HTU21D;54052;53.542;49.408;2023-04-03T08:14:59;14.71;23.05
67133;HTU21D;54052;53.542;49.408;2023-04-03T08:17:27;14.79;23.88
67133;HTU21D;54052;53.542;49.408;2023-04-03T08:19:53;14.80;22.25
67133;HTU21D;54052;53.542;49.408;2023-04-03T08:22:19;14.86;22.37
67133;HTU21D;54052;53.542;49.408;2023-04-03T08:24:46;14.93;22.13
67133;HTU21D;54052;53.542;49.408;2023-04-03T08:27:12;14.96;22.22
67133;HTU21D;54052;53.542;49.408;2023-04-03T08:29:39;14.98;22.36
67133;HTU21D;54052;53.542;49.408;2023-04-03T08:32:05;14.95;21.47
67133;HTU21D;54052;53.542;49.408;2023-04-03T08:34:32;14.94;22.69
67133;HTU21D;54052;53.542;49.408;2023-04-03T08:37:01;15.07;23.36
67133;HTU21D;54052;53.542;49.408;2023-04-03T08:39:28;15.24;23.17
67133;HTU21D;54052;53.542;49.408;2023-04-03T08:41:57;15.30;21.72
67133;HTU21D;54052;53.542;49.408;2023-04-03T08:44:43;15.40;22.35
67133;HTU21D;54052;53.542;49.408;2023-04-03T08:47:24;15.53;22.18
67133;HTU21D;54052;53.542;49.408;2023-04-03T08:49:59;15.60;21.72
67133;HTU21D;54052;53.542;49.408;2023-04-03T08:55:04;15.59;20.96
67133;HTU21D;54052;53.542;49.408;2023-04-03T08:57:38;15.56;21.23
67133;HTU21D;54052;53.542;49.408;2023-04-03T09:02:54;15.61;21.50
67133;HTU21D;54052;53.542;49.408;2023-04-03T09:14:29;15.69;20.71
67133;HTU21D;54052;53.542;49.408;2023-04-03T09:17:09;15.83;21.10
67133;HTU21D;54052;53.542;49.408;2023-04-03T09:22:41;16.12;20.54
67133;HTU21D;54052;53.542;49.408;2023-04-03T09:25:18;16.11;19.79
67133;HTU21D;54052;53.542;49.408;2023-04-03T09:27:46;16.16;20.03
67133;HTU21D;54052;53.542;49.408;2023-04-03T09:30:23;16.25;19.63
67133;HTU21D;54052;53.542;49.408;2023-04-03T09:32:55;16.19;19.58
67133;HTU21D;54052;53.542;49.408;2023-04-03T09:35:30;16.29;19.99
67133;HTU21D;54052;53.542;49.408;2023-04-03T09:42:53;16.33;19.54
67133;HTU21D;54052;53.542;49.408;2023-04-03T09:45:31;16.34;19.29
67133;HTU21D;54052;53.542;49.408;2023-04-03T09:55:53;16.34;18.77
67133;HTU21D;54052;53.542;49.408;2023-04-03T09:58:37;16.42;17.82
67133;HTU21D;54052;53.542;49.408;2023-04-03T10:01:04;16.57;18.44
67133;HTU21D;54052;53.542;49.408;2023-04-03T10:03:33;16.66;16.90
67133;HTU21D;54052;53.542;49.408;2023-04-03T10:06:04;16.67;17.45
67133;HTU21D;54052;53.542;49.408;2023-04-03T10:09:05;16.73;17.62
67133;HTU21D;54052;53.542;49.408;2023-04-03T10:11:32;16.82;17.70
67133;HTU21D;54052;53.542;49.408;2023-04-03T10:14:00;16.90;18.13
67133;HTU21D;54052;53.542;49.408;2023-04-03T10:16:38;17.06;18.80
67133;HTU21D;54052;53.542;49.408;2023-04-03T10:22:08;17.30;16.96
67133;HTU21D;54052;53.542;49.408;2023-04-03T10:24:58;17.35;15.36
67133;HTU21D;54052;53.542;49.408;2023-04-03T10:41:01;17.20;17.66
67133;HTU21D;54052;53.542;49.408;2023-04-03T10:49:14;17.34;17.49
67133;HTU21D;54052;53.542;49.408;2023-04-03T10:51:51;17.22;18.14
67133;HTU21D;54052;53.542;49.408;2023-04-03T10:54:26;17.34;18.36
67133;HTU21D;54052;53.542;49.408;2023-04-03T10:57:03;17.25;19.56
67133;HTU21D;54052;53.542;49.408;2023-04-03T10:59:44;17.19;19.75
67133;HTU21D;54052;53.542;49.408;2023-04-03T11:02:31;17.16;19.60
67133;HTU21D;54052;53.542;49.408;2023-04-03T11:07:38;16.85;20.70
67133;HTU21D;54052;53.542;49.408;2023-04-03T11:10:23;16.93;21.16
67133;HTU21D;54052;53.542;49.408;2023-04-03T11:12:56;16.89;21.27
67133;HTU21D;54052;53.542;49.408;2023-04-03T11:15:24;16.77;22.06
67133;HTU21D;54052;53.542;49.408;2023-04-03T11:17:53;16.76;21.79
67133;HTU21D;54052;53.542;49.408;2023-04-03T11:20:32;16.77;21.92
67133;HTU21D;54052;53.542;49.408;2023-04-03T11:23:08;16.81;22.00
67133;HTU21D;54052;53.542;49.408;2023-04-03T11:25:40;16.86;22.10
67133;HTU21D;54052;53.542;49.408;2023-04-03T11:28:12;16.96;22.34
67133;HTU21D;54052;53.542;49.408;2023-04-03T11:31:02;17.05;22.24
67133;HTU21D;54052;53.542;49.408;2023-04-03T11:33:51;17.03;22.28
67133;HTU21D;54052;53.542;49.408;2023-04-03T11:36:48;17.01;22.60
67133;HTU21D;54052;53.542;49.408;2023-04-03T11:39:20;16.95;21.74
67133;HTU21D;54052;53.542;49.408;2023-04-03T11:41:48;17.00;22.08
67133;HTU21D;54052;53.542;49.408;2023-04-03T11:46:58;16.99;22.42
67133;HTU21D;54052;53.542;49.408;2023-04-03T11:49:57;16.92;22.55
67133;HTU21D;54052;53.542;49.408;2023-04-03T12:11:31;17.30;22.59
67133;HTU21D;54052;53.542;49.408;2023-04-03T12:19:32;17.44;22.50
67133;HTU21D;54052;53.542;49.408;2023-04-03T12:24:39;17.52;22.59
67133;HTU21D;54052;53.542;49.408;2023-04-03T12:32:44;17.40;22.68
67133;HTU21D;54052;53.542;49.408;2023-04-03T12:43:17;17.10;24.16
67133;HTU21D;54052;53.542;49.408;2023-04-03T12:48:22;17.18;23.23
67133;HTU21D;54052;53.542;49.408;2023-04-03T12:50:50;17.20;23.15
67133;HTU21D;54052;53.542;49.408;2023-04-03T12:53:20;17.21;22.92
67133;HTU21D;54052;53.542;49.408;2023-04-03T12:55:54;17.34;22.63
67133;HTU21D;54052;53.542;49.408;2023-04-03T12:58:29;17.44;22.37
67133;HTU21D;54052;53.542;49.408;2023-04-03T13:01:01;17.49;22.05
67133;HTU21D;54052;53.542;49.408;2023-04-03T13:03:28;17.62;22.39
67133;HTU21D;54052;53.542;49.408;2023-04-03T13:06:02;17.67;21.92
67133;HTU21D;54052;53.542;49.408;2023-04-03T13:08:30;17.62;21.98
67133;HTU21D;54052;53.542;49.408;2023-04-03T13:13:28;17.44;22.22
67133;HTU21D;54052;53.542;49.408;2023-04-03T13:15:55;17.44;22.36
67133;HTU21D;54052;53.542;49.408;2023-04-03T13:18:33;17.35;22.24
67133;HTU21D;54052;53.542;49.408;2023-04-03T13:21:04;17.25;22.09
67133;HTU21D;54052;53.542;49.408;2023-04-03T13:23:35;17.22;22.28
67133;HTU21D;54052;53.542;49.408;2023-04-03T13:26:03;17.19;22.85
67133;HTU21D;54052;53.542;49.408;2023-04-03T13:28:31;17.13;22.79
67133;HTU21D;54052;53.542;49.408;2023-04-03T13:31:07;17.09;23.16
67133;HTU21D;54052;53.542;49.408;2023-04-03T13:33:36;16.96;23.32
67133;HTU21D;54052;53.542;49.408;2023-04-03T13:36:19;16.93;23.36
67133;HTU21D;54052;53.542;49.408;2023-04-03T13:38:58;16.89;23.53
67133;HTU21D;54052;53.542;49.408;2023-04-03T13:41:29;16.86;23.62
67133;HTU21D;54052;53.542;49.408;2023-04-03T13:43:57;16.81;23.46
67133;HTU21D;54052;53.542;49.408;2023-04-03T13:46:40;16.77;23.38
67133;HTU21D;54052;53.542;49.408;2023-04-03T13:49:21;16.72;23.73
67133;HTU21D;54052;53.542;49.408;2023-04-03T13:51:49;16.64;23.57
67133;HTU21D;54052;53.542;49.408;2023-04-03T13:54:22;16.55;23.35
67133;HTU21D;54052;53.542;49.408;2023-04-03T13:56:54;16.50;23.29
67133;HTU21D;54052;53.542;49.408;2023-04-03T13:59:24;16.43;23.59
67133;HTU21D;54052;53.542;49.408;2023-04-03T14:02:09;16.37;23.80
67133;HTU21D;54052;53.542;49.408;2023-04-03T14:04:47;16.36;24.33
67133;HTU21D;54052;53.542;49.408;2023-04-03T14:07:15;16.31;24.13
67133;HTU21D;54052;53.542;49.408;2023-04-03T14:09:42;16.29;24.36
67133;HTU21D;54052;53.542;49.408;2023-04-03T14:12:26;16.18;24.46
67133;HTU21D;54052;53.542;49.408;2023-04-03T14:14:53;16.14;24.49
67133;HTU21D;54052;53.542;49.408;2023-04-03T14:17:23;16.06;24.17
67133;HTU21D;54052;53.542;49.408;2023-04-03T14:19:51;16.00;24.65
67133;HTU21D;54052;53.542;49.408;2023-04-03T14:22:21;15.95;25.03
67133;HTU21D;54052;53.542;49.408;2023-04-03T14:24:48;15.90;24.40
67133;HTU21D;54052;53.542;49.408;2023-04-03T14:27:22;15.87;24.66
67133;HTU21D;54052;53.542;49.408;2023-04-03T14:29:50;15.85;24.35
67133;HTU21D;54052;53.542;49.408;2023-04-03T14:32:18;15.78;24.46
67133;HTU21D;54052;53.542;49.408;2023-04-03T14:34:45;15.74;24.26
67133;HTU21D;54052;53.542;49.408;2023-04-03T14:37:14;15.70;24.87
67133;HTU21D;54052;53.542;49.408;2023-04-03T14:39:42;15.60;25.19
67133;HTU21D;54052;53.542;49.408;2023-04-03T14:42:15;15.51;25.27
67133;HTU21D;54052;53.542;49.408;2023-04-03T14:44:41;15.43;25.62
67133;HTU21D;54052;53.542;49.408;2023-04-03T14:47:12;15.36;26.15
67133;HTU21D;54052;53.542;49.408;2023-04-03T14:49:40;15.26;26.26
67133;HTU21D;54052;53.542;49.408;2023-04-03T14:52:18;15.13;26.38
67133;HTU21D;54052;53.542;49.408;2023-04-03T14:54:44;15.00;26.93
67133;HTU21D;54052;53.542;49.408;2023-04-03T14:57:13;14.89;27.39
67133;HTU21D;54052;53.542;49.408;2023-04-03T14:59:40;14.77;27.62
67133;HTU21D;54052;53.542;49.408;2023-04-03T15:02:33;14.67;28.09
67133;HTU21D;54052;53.542;49.408;2023-04-03T15:05:02;14.53;28.09
67133;HTU21D;54052;53.542;49.408;2023-04-03T15:07:32;14.39;28.48
67133;HTU21D;54052;53.542;49.408;2023-04-03T15:10:16;14.25;29.04
67133;HTU21D;54052;53.542;49.408;2023-04-03T15:12:44;14.10;29.68
67133;HTU21D;54052;53.542;49.408;2023-04-03T15:15:12;13.98;30.49
67133;HTU21D;54052;53.542;49.408;2023-04-03T15:17:38;0.00;28.92
67133;HTU21D;54052;53.542;49.408;2023-04-03T15:20:19;13.82;30.00
67133;HTU21D;54052;53.542;49.408;2023-04-03T15:22:45;13.70;30.23
67133;HTU21D;54052;53.542;49.408;2023-04-03T15:25:12;13.58;30.24
67133;HTU21D;54052;53.542;49.408;2023-04-03T15:27:39;13.45;30.52
67133;HTU21D;54052;53.542;49.408;2023-04-03T15:30:10;13.31;32.54
67133;HTU21D;54052;53.542;49.408;2023-04-03T15:32:37;13.21;31.20
67133;HTU21D;54052;53.542;49.408;2023-04-03T15:35:03;13.25;30.53
67133;HTU21D;54052;53.542;49.408;2023-04-03T15:37:29;13.30;30.70
67133;HTU21D;54052;53.542;49.408;2023-04-03T15:39:55;13.24;30.93
67133;HTU21D;54052;53.542;49.408;2023-04-03T15:42:21;13.12;32.22
67133;HTU21D;54052;53.542;49.408;2023-04-03T15:44:48;12.96;33.18
67133;HTU21D;54052;53.542;49.408;2023-04-03T15:47:14;12.82;32.41
67133;HTU21D;54052;53.542;49.408;2023-04-03T15:49:40;12.75;32.26
67133;HTU21D;54052;53.542;49.408;2023-04-03T15:52:07;12.65;31.78
67133;HTU21D;54052;53.542;49.408;2023-04-03T15:54:33;12.55;32.22
67133;HTU21D;54052;53.542;49.408;2023-04-03T15:56:59;12.48;32.39
67133;HTU21D;54052;53.542;49.408;2023-04-03T15:59:25;12.43;32.44
67133;HTU21D;54052;53.542;49.408;2023-04-03T16:01:52;12.40;33.44
67133;HTU21D;54052;53.542;49.408;2023-04-03T16:04:18;12.32;33.00
67133;HTU21D;54052;53.542;49.408;2023-04-03T16:06:46;12.25;33.47
67133;HTU21D;54052;53.542;49.408;2023-04-03T16:09:12;12.16;33.99
67133;HTU21D;54052;53.542;49.408;2023-04-03T16:11:38;12.08;34.34
67133;HTU21D;54052;53.542;49.408;2023-04-03T16:14:06;12.02;34.42
67133;HTU21D;54052;53.542;49.408;2023-04-03T16:16:33;11.96;34.40
67133;HTU21D;54052;53.542;49.408;2023-04-03T16:18:59;11.91;35.16
67133;HTU21D;54052;53.542;49.408;2023-04-03T16:21:26;11.84;35.22
67133;HTU21D;54052;53.542;49.408;2023-04-03T16:23:53;11.82;35.21
67133;HTU21D;54052;53.542;49.408;2023-04-03T16:26:19;11.74;35.42
67133;HTU21D;54052;53.542;49.408;2023-04-03T16:28:45;11.67;35.59
67133;HTU21D;54052;53.542;49.408;2023-04-03T16:31:12;11.58;35.71
67133;HTU21D;54052;53.542;49.408;2023-04-03T16:33:38;11.53;35.64
67133;HTU21D;54052;53.542;49.408;2023-04-03T16:36:05;11.46;36.63
67133;HTU21D;54052;53.542;49.408;2023-04-03T16:38:32;11.40;36.62
67133;HTU21D;54052;53.542;49.408;2023-04-03T16:40:58;11.36;36.58
67133;HTU21D;54052;53.542;49.408;2023-04-03T16:43:28;11.30;36.62
67133;HTU21D;54052;53.542;49.408;2023-04-03T16:45:54;11.29;36.86
67133;HTU21D;54052;53.542;49.408;2023-04-03T16:48:20;11.26;36.53
67133;HTU21D;54052;53.542;49.408;2023-04-03T16:50:47;11.20;37.45
67133;HTU21D;54052;53.542;49.408;2023-04-03T16:53:15;11.16;36.98
67133;HTU21D;54052;53.542;49.408;2023-04-03T16:55:42;11.14;37.21
67133;HTU21D;54052;53.542;49.408;2023-04-03T16:58:08;11.11;37.10
67133;HTU21D;54052;53.542;49.408;2023-04-03T17:00:35;11.05;37.27
67133;HTU21D;54052;53.542;49.408;2023-04-03T17:03:02;11.03;37.45